createdAt,value
2019-02-23T00:01:20.268Z,95.65
2019-02-23T00:03:48.382Z,94.68
2019-02-23T00:06:16.459Z,95.12
2019-02-23T00:08:44.691Z,94.82
2019-02-23T00:11:12.762Z,94.65
2019-02-23T00:13:40.911Z,94.29
2019-02-23T00:16:09.012Z,94.15
2019-02-23T00:18:37.515Z,94.10
2019-02-23T00:21:05.556Z,94.39
2019-02-23T00:23:33.742Z,94.04
2019-02-23T00:26:01.902Z,95.14
2019-02-23T00:28:30.394Z,95.68
2019-02-23T00:30:58.505Z,95.52
2019-02-23T00:33:26.573Z,96.25
2019-02-23T00:35:54.704Z,97.02
2019-02-23T00:38:22.839Z,96.51
2019-02-23T00:40:50.960Z,97.02
2019-02-23T00:43:19.032Z,96.35
2019-02-23T00:45:47.150Z,97.14
2019-02-23T00:48:15.216Z,98.08
2019-02-23T00:50:43.729Z,98.08
2019-02-23T00:53:11.804Z,98.09
2019-02-23T00:55:39.946Z,99.34
2019-02-23T00:58:09.339Z,99.80
2019-02-23T01:00:37.408Z,99.20
2019-02-23T01:03:05.697Z,100.00
2019-02-23T01:05:33.754Z,99.31
2019-02-23T01:08:02.218Z,98.64
2019-02-23T01:10:30.274Z,98.22
2019-02-23T01:12:58.527Z,98.12
2019-02-23T01:15:26.870Z,99.23
2019-02-23T01:17:54.997Z,98.74
2019-02-23T01:20:23.444Z,98.58
2019-02-23T01:22:51.551Z,99.05
2019-02-23T01:25:19.913Z,99.52
2019-02-23T01:27:48.094Z,99.33
2019-02-23T01:30:16.324Z,98.76
2019-02-23T01:32:44.487Z,100.00
2019-02-23T01:35:12.564Z,100.00
2019-02-23T01:37:40.711Z,100.00
2019-02-23T01:40:10.067Z,100.00
2019-02-23T01:42:39.273Z,100.00
2019-02-23T01:45:11.229Z,100.00
2019-02-23T01:47:39.755Z,100.00
2019-02-23T01:50:08.637Z,99.75
2019-02-23T01:52:36.784Z,100.00
2019-02-23T01:55:07.284Z,99.12
2019-02-23T01:57:35.427Z,99.09
2019-02-23T02:00:06.968Z,98.39
2019-02-23T02:02:35.323Z,98.50
2019-02-23T02:05:04.103Z,98.09
2019-02-23T02:07:32.207Z,96.83
2019-02-23T02:10:00.617Z,97.43
2019-02-23T02:12:29.353Z,98.79
2019-02-23T02:14:59.312Z,98.61
2019-02-23T02:17:27.408Z,98.63
2019-02-23T02:19:56.225Z,97.75
2019-02-23T02:22:24.321Z,98.54
2019-02-23T02:24:52.398Z,99.24
2019-02-23T02:27:20.530Z,99.07
2019-02-23T02:29:48.772Z,98.73
2019-02-23T02:32:17.740Z,98.37
2019-02-23T02:34:45.856Z,97.69
2019-02-23T02:37:14.165Z,97.04
2019-02-23T02:39:42.289Z,96.90
2019-02-23T02:42:10.518Z,96.23
2019-02-23T02:44:40.421Z,97.02
2019-02-23T02:47:08.607Z,97.38
2019-02-23T02:49:36.714Z,97.00
2019-02-23T02:52:04.977Z,97.90
2019-02-23T02:54:33.222Z,98.14
2019-02-23T02:57:01.277Z,98.18
2019-02-23T02:59:29.719Z,98.15
2019-02-23T03:01:58.989Z,98.29
2019-02-23T03:04:27.408Z,97.66
2019-02-23T03:06:55.635Z,96.91
2019-02-23T03:09:23.717Z,96.57
2019-02-23T03:11:51.934Z,97.08
2019-02-23T03:14:20.831Z,96.93
2019-02-23T03:16:49.032Z,96.90
2019-02-23T03:19:17.157Z,97.36
2019-02-23T03:21:45.375Z,96.70
2019-02-23T03:24:13.720Z,96.22
2019-02-23T03:26:41.922Z,97.17
2019-02-23T03:29:09.991Z,96.22
2019-02-23T03:31:38.222Z,95.27
2019-02-23T03:34:06.275Z,96.10
2019-02-23T03:36:34.576Z,96.14
2019-02-23T03:39:04.060Z,96.35
2019-02-23T03:41:32.362Z,96.62
2019-02-23T03:44:00.501Z,95.62
2019-02-23T03:46:28.635Z,95.89
2019-02-23T03:48:56.662Z,95.30
2019-02-23T03:51:24.949Z,95.66
2019-02-23T03:53:53.269Z,95.51
2019-02-23T03:56:21.584Z,95.06
2019-02-23T03:58:49.711Z,94.88
2019-02-23T04:01:17.767Z,94.35
2019-02-23T04:03:45.941Z,94.80
2019-02-23T04:06:13.968Z,94.75
2019-02-23T04:08:42.572Z,95.29
2019-02-23T04:11:10.824Z,95.75
2019-02-23T04:13:39.233Z,95.08
2019-02-23T04:16:07.645Z,94.43
2019-02-23T04:18:35.736Z,94.57
2019-02-23T04:21:03.932Z,94.67
2019-02-23T04:23:32.158Z,94.86
2019-02-23T04:26:00.389Z,95.41
2019-02-23T04:28:28.989Z,94.96
2019-02-23T04:30:57.121Z,97.51
2019-02-23T04:33:25.900Z,96.88
2019-02-23T04:35:54.112Z,97.08
2019-02-23T04:38:22.286Z,97.18
2019-02-23T04:40:51.041Z,96.57
2019-02-23T04:43:19.206Z,97.21
2019-02-23T04:45:47.445Z,96.99
2019-02-23T04:48:15.533Z,96.16
2019-02-23T04:50:44.237Z,96.69
2019-02-23T04:53:12.461Z,96.71
2019-02-23T04:55:40.511Z,96.30
2019-02-23T04:58:09.328Z,96.30
2019-02-23T05:00:37.525Z,96.92
2019-02-23T05:03:06.297Z,96.59
2019-02-23T05:05:34.453Z,96.43
2019-02-23T05:08:02.594Z,96.98
2019-02-23T05:10:30.715Z,97.99
2019-02-23T05:12:58.802Z,97.55
2019-02-23T05:15:27.393Z,96.86
2019-02-23T05:17:55.719Z,96.12
2019-02-23T05:20:23.795Z,96.43
2019-02-23T05:22:52.219Z,97.04
2019-02-23T05:25:20.613Z,96.40
2019-02-23T05:27:50.492Z,96.89
2019-02-23T05:30:18.627Z,97.04
2019-02-23T05:32:47.499Z,97.38
2019-02-23T05:35:15.684Z,97.15
2019-02-23T05:37:43.788Z,96.62
2019-02-23T05:40:12.146Z,96.87
2019-02-23T05:42:40.313Z,96.19
2019-02-23T05:45:09.035Z,96.17
2019-02-23T05:47:37.141Z,96.38
2019-02-23T05:50:05.935Z,96.31
2019-02-23T05:52:34.022Z,96.29
2019-02-23T05:55:02.563Z,95.78
2019-02-23T05:57:30.881Z,95.61
2019-02-23T05:59:59.074Z,95.76
2019-02-23T06:02:27.343Z,95.98
2019-02-23T06:04:55.440Z,95.75
2019-02-23T06:07:24.015Z,96.00
2019-02-23T06:09:52.112Z,96.08
2019-02-23T06:12:21.227Z,95.52
2019-02-23T06:14:53.385Z,95.59
2019-02-23T06:17:21.529Z,95.79
2019-02-23T06:19:50.713Z,96.22
2019-02-23T06:22:18.830Z,96.46
2019-02-23T06:24:47.550Z,96.25
2019-02-23T06:27:17.482Z,96.15
2019-02-23T06:29:47.360Z,95.83
2019-02-23T06:32:15.623Z,96.41
2019-02-23T06:34:45.458Z,96.51
2019-02-23T06:37:13.663Z,96.10
2019-02-23T06:39:41.846Z,95.83
2019-02-23T06:42:10.004Z,96.34
2019-02-23T06:44:39.897Z,96.51
2019-02-23T06:47:08.054Z,95.84
2019-02-23T06:49:36.284Z,95.57
2019-02-23T06:52:04.829Z,95.11
2019-02-23T06:54:33.456Z,95.23
2019-02-23T06:57:02.085Z,96.05
2019-02-23T06:59:30.285Z,96.98
2019-02-23T07:01:58.442Z,97.59
2019-02-23T07:04:26.652Z,97.92
2019-02-23T07:06:54.826Z,98.94
2019-02-23T07:09:22.891Z,98.61
2019-02-23T07:11:51.084Z,97.60
2019-02-23T07:14:19.367Z,97.67
2019-02-23T07:16:47.513Z,97.71
2019-02-23T07:19:15.585Z,98.94
2019-02-23T07:21:43.926Z,99.74
2019-02-23T07:24:12.013Z,99.25
2019-02-23T07:26:40.330Z,99.21
2019-02-23T07:29:08.551Z,98.72
2019-02-23T07:31:36.794Z,98.30
2019-02-23T07:34:04.925Z,99.08
2019-02-23T07:36:33.061Z,98.64
2019-02-23T07:39:02.190Z,99.33
2019-02-23T07:41:30.406Z,98.47
2019-02-23T07:43:58.619Z,98.42
2019-02-23T07:46:26.768Z,97.91
2019-02-23T07:48:54.968Z,98.02
2019-02-23T07:51:23.136Z,97.77
2019-02-23T07:53:51.292Z,97.20
2019-02-23T07:56:19.665Z,97.67
2019-02-23T07:58:48.129Z,98.09
2019-02-23T08:01:16.623Z,98.30
2019-02-23T08:03:44.787Z,97.62
2019-02-23T08:06:13.151Z,96.76
2019-02-23T08:08:41.303Z,95.90
2019-02-23T08:11:09.688Z,95.94
2019-02-23T08:13:37.819Z,96.39
2019-02-23T08:16:06.302Z,95.65
2019-02-23T08:18:34.791Z,95.10
2019-02-23T08:21:03.115Z,93.87
2019-02-23T08:23:31.621Z,94.87
2019-02-23T08:26:00.011Z,94.15
2019-02-23T08:28:28.166Z,93.13
2019-02-23T08:30:56.348Z,92.34
2019-02-23T08:33:24.502Z,91.18
2019-02-23T08:35:52.765Z,93.34
2019-02-23T08:38:20.822Z,92.16
2019-02-23T08:40:50.849Z,90.29
2019-02-23T08:43:20.800Z,91.08
2019-02-23T08:45:50.841Z,90.95
2019-02-23T08:48:18.935Z,92.22
2019-02-23T08:50:48.136Z,91.90
2019-02-23T08:53:16.280Z,91.91
2019-02-23T08:55:44.392Z,91.02
2019-02-23T08:58:12.777Z,90.47
2019-02-23T09:00:41.002Z,89.88
2019-02-23T09:03:09.262Z,89.28
2019-02-23T09:05:38.194Z,89.14
2019-02-23T09:08:06.413Z,88.03
2019-02-23T09:10:34.599Z,87.51
2019-02-23T09:13:02.962Z,86.71
2019-02-23T09:15:37.958Z,86.21
2019-02-23T09:18:06.121Z,85.44
2019-02-23T09:20:34.664Z,84.94
2019-02-23T09:23:02.892Z,84.29
2019-02-23T09:25:31.479Z,84.22
2019-02-23T09:28:00.433Z,82.96
2019-02-23T09:30:30.171Z,82.76
2019-02-23T09:32:58.375Z,80.02
2019-02-23T09:35:26.897Z,79.25
2019-02-23T09:37:54.985Z,79.23
2019-02-23T09:40:23.061Z,78.40
2019-02-23T09:42:51.339Z,76.89
2019-02-23T09:45:19.568Z,76.64
2019-02-23T09:47:47.829Z,76.43
2019-02-23T09:50:16.030Z,76.29
2019-02-23T09:52:44.955Z,76.50
2019-02-23T09:55:13.292Z,75.12
2019-02-23T09:57:41.370Z,75.66
2019-02-23T10:00:10.243Z,75.57
2019-02-23T10:02:38.434Z,76.21
2019-02-23T10:05:07.057Z,74.85
2019-02-23T10:07:35.331Z,74.44
2019-02-23T10:10:03.623Z,74.60
2019-02-23T10:12:32.332Z,74.14
2019-02-23T10:15:00.463Z,73.56
2019-02-23T10:17:28.558Z,74.43
2019-02-23T10:19:56.713Z,74.88
2019-02-23T10:22:24.837Z,74.06
2019-02-23T10:24:53.015Z,73.47
2019-02-23T10:27:21.122Z,72.33
2019-02-23T10:29:49.198Z,72.35
2019-02-23T10:32:17.323Z,72.51
2019-02-23T10:34:46.017Z,72.74
2019-02-23T10:37:14.107Z,70.91
2019-02-23T10:39:42.868Z,70.40
2019-02-23T10:42:11.031Z,69.93
2019-02-23T10:44:39.348Z,69.76
2019-02-23T10:47:07.669Z,68.29
2019-02-23T10:49:37.079Z,68.21
2019-02-23T10:52:05.227Z,68.75
2019-02-23T10:54:34.869Z,68.86
2019-02-23T10:57:03.464Z,67.33
2019-02-23T10:59:32.300Z,68.17
2019-02-23T11:02:00.676Z,68.25
2019-02-23T11:04:28.827Z,67.93
2019-02-23T11:06:57.460Z,66.97
2019-02-23T11:09:33.118Z,67.63
2019-02-23T11:12:01.601Z,67.36
2019-02-23T11:14:29.796Z,66.73
2019-02-23T11:16:58.396Z,66.96
2019-02-23T11:19:26.651Z,66.98
2019-02-23T11:21:55.183Z,66.95
2019-02-23T11:24:23.452Z,66.92
2019-02-23T11:26:51.545Z,65.83
2019-02-23T11:29:19.860Z,66.23
2019-02-23T11:31:48.058Z,66.11
2019-02-23T11:34:16.456Z,66.27
2019-02-23T11:36:44.511Z,65.67
2019-02-23T11:39:13.008Z,66.14
2019-02-23T11:41:41.309Z,64.89
2019-02-23T11:44:09.867Z,66.35
2019-02-23T11:46:38.317Z,66.15
2019-02-23T11:49:08.200Z,65.21
2019-02-23T11:51:36.749Z,65.67
2019-02-23T11:54:04.835Z,65.94
2019-02-23T11:56:33.243Z,65.67
2019-02-23T11:59:01.357Z,65.51
2019-02-23T12:01:29.694Z,65.83
2019-02-23T12:03:57.723Z,66.14
2019-02-23T12:06:25.786Z,65.16
2019-02-23T12:08:53.968Z,64.50
2019-02-23T12:11:22.450Z,64.51
2019-02-23T12:13:51.447Z,64.94
2019-02-23T12:16:19.644Z,63.57
2019-02-23T12:18:47.721Z,62.18
2019-02-23T12:21:16.363Z,63.30
2019-02-23T12:23:44.474Z,64.92
2019-02-23T12:26:12.547Z,62.82
2019-02-23T12:28:40.677Z,63.75
2019-02-23T12:31:09.224Z,64.82
2019-02-23T12:33:37.403Z,64.79
2019-02-23T12:36:05.513Z,63.36
2019-02-23T12:38:33.923Z,64.02
2019-02-23T12:41:02.050Z,64.24
2019-02-23T12:43:30.558Z,62.92
2019-02-23T12:45:58.809Z,62.63
2019-02-23T12:48:27.160Z,63.06
2019-02-23T12:50:55.470Z,62.06
2019-02-23T12:53:23.986Z,62.20
2019-02-23T12:55:52.559Z,63.29
2019-02-23T12:58:22.916Z,60.42
2019-02-23T13:00:51.492Z,61.66
2019-02-23T13:03:20.188Z,60.54
2019-02-23T13:05:48.324Z,59.62
2019-02-23T13:08:16.780Z,59.56
2019-02-23T13:10:45.402Z,61.33
2019-02-23T13:14:19.990Z,61.78
2019-02-23T13:17:44.474Z,61.13
2019-02-23T13:21:20.774Z,60.84
2019-02-23T13:25:15.704Z,61.70
2019-02-23T13:28:35.000Z,61.00
2019-02-23T13:32:00.791Z,61.10
2019-02-23T13:35:02.414Z,60.12
2019-02-23T13:38:01.927Z,60.12
2019-02-23T13:41:28.369Z,61.25
2019-02-23T13:44:37.636Z,59.46
2019-02-23T13:47:40.940Z,59.44
2019-02-23T13:51:11.167Z,59.75
2019-02-23T13:54:38.316Z,60.05
2019-02-23T13:57:30.162Z,59.03
2019-02-23T14:00:39.455Z,59.12
2019-02-23T14:04:00.876Z,58.04
2019-02-23T14:07:31.984Z,56.67
2019-02-23T14:11:03.893Z,57.83
2019-02-23T14:14:02.126Z,58.77
2019-02-23T14:17:44.667Z,59.29
2019-02-23T14:20:51.139Z,57.21
2019-02-23T14:24:05.649Z,57.15
2019-02-23T14:27:19.243Z,58.13
2019-02-23T14:30:31.971Z,57.47
2019-02-23T14:34:03.084Z,57.88
2019-02-23T14:37:42.363Z,56.04
2019-02-23T14:40:54.259Z,56.59
2019-02-23T14:44:12.478Z,57.29
2019-02-23T14:47:42.485Z,57.38
2019-02-23T14:51:12.756Z,56.52
2019-02-23T14:54:45.177Z,56.63
2019-02-23T14:58:20.901Z,56.43
2019-02-23T15:01:33.782Z,55.45
2019-02-23T15:04:54.556Z,56.33
2019-02-23T15:08:12.746Z,56.30
2019-02-23T15:11:49.898Z,56.54
2019-02-23T15:15:08.884Z,56.18
2019-02-23T15:18:22.231Z,56.15
2019-02-23T15:21:41.453Z,54.88
2019-02-23T15:25:13.250Z,55.19
2019-02-23T15:28:37.469Z,53.22
2019-02-23T15:31:20.553Z,53.52
2019-02-23T15:34:50.926Z,54.58
2019-02-23T15:37:57.906Z,56.27
2019-02-23T15:41:27.909Z,57.20
2019-02-23T15:44:27.130Z,57.18
2019-02-23T15:47:55.951Z,54.80
2019-02-23T15:50:24.225Z,54.55
2019-02-23T15:52:52.487Z,53.57
2019-02-23T15:55:26.032Z,54.77
2019-02-23T15:57:51.388Z,53.98
2019-02-23T16:00:19.559Z,54.44
2019-02-23T16:02:48.335Z,54.25
2019-02-23T16:05:16.635Z,54.02
2019-02-23T16:07:44.847Z,53.66
2019-02-23T16:10:13.422Z,54.30
2019-02-23T16:12:41.646Z,53.80
2019-02-23T16:15:09.923Z,54.35
2019-02-23T16:17:38.478Z,53.93
2019-02-23T16:20:07.800Z,54.52
2019-02-23T16:22:35.899Z,54.90
2019-02-23T16:25:04.191Z,56.09
2019-02-23T16:27:32.484Z,56.04
2019-02-23T16:30:01.335Z,55.16
2019-02-23T16:32:29.649Z,56.23
2019-02-23T16:34:57.756Z,56.90
2019-02-23T16:37:25.845Z,56.18
2019-02-23T16:39:53.961Z,56.26
2019-02-23T16:42:23.092Z,56.36
2019-02-23T16:44:51.609Z,57.15
2019-02-23T16:47:19.990Z,56.87
2019-02-23T16:49:48.405Z,56.80
2019-02-23T16:52:17.223Z,57.23
2019-02-23T16:54:45.356Z,57.35
2019-02-23T16:57:13.564Z,56.97
2019-02-23T16:59:41.653Z,56.38
2019-02-23T17:02:10.057Z,56.15
2019-02-23T17:04:38.317Z,56.49
2019-02-23T17:07:06.848Z,56.83
2019-02-23T17:09:34.976Z,56.66
2019-02-23T17:12:03.027Z,56.81
2019-02-23T17:14:31.171Z,57.34
2019-02-23T17:16:59.770Z,57.78
2019-02-23T17:19:27.900Z,57.94
2019-02-23T17:21:56.030Z,58.82
2019-02-23T17:24:24.584Z,58.45
2019-02-23T17:26:52.893Z,59.06
2019-02-23T17:29:20.973Z,59.46
2019-02-23T17:31:49.203Z,59.30
2019-02-23T17:34:17.478Z,59.40
2019-02-23T17:36:46.422Z,59.19
2019-02-23T17:39:14.499Z,58.47
2019-02-23T17:41:42.943Z,58.21
2019-02-23T17:44:11.399Z,58.70
2019-02-23T17:46:39.471Z,59.68
2019-02-23T17:49:07.571Z,60.70
2019-02-23T17:51:37.304Z,61.27
2019-02-23T17:54:07.350Z,60.60
2019-02-23T17:56:35.488Z,60.89
2019-02-23T17:59:04.223Z,60.47
2019-02-23T18:01:32.392Z,61.06
2019-02-23T18:04:01.220Z,60.26
2019-02-23T18:06:31.287Z,60.65
2019-02-23T18:09:01.150Z,61.19
2019-02-23T18:11:29.786Z,61.58
2019-02-23T18:13:58.081Z,62.25
2019-02-23T18:16:26.317Z,63.40
2019-02-23T18:18:54.449Z,63.67
2019-02-23T18:21:22.989Z,63.72
2019-02-23T18:23:51.263Z,63.60
2019-02-23T18:26:21.177Z,63.46
2019-02-23T18:28:50.096Z,64.26
2019-02-23T18:31:18.584Z,64.38
2019-02-23T18:33:46.851Z,64.39
2019-02-23T18:36:15.200Z,64.58
2019-02-23T18:38:43.408Z,65.28
2019-02-23T18:41:11.476Z,65.50
2019-02-23T18:43:40.027Z,65.70
2019-02-23T18:46:08.309Z,65.17
2019-02-23T18:48:37.018Z,65.24
2019-02-23T18:51:05.388Z,64.38
2019-02-23T18:53:33.561Z,64.53
2019-02-23T18:56:02.647Z,64.11
2019-02-23T18:58:31.242Z,64.06
2019-02-23T19:00:59.708Z,64.40
2019-02-23T19:03:28.157Z,64.68
2019-02-23T19:05:56.261Z,64.90
2019-02-23T19:08:24.545Z,64.82
2019-02-23T19:11:01.515Z,65.21
2019-02-23T19:13:29.583Z,65.78
2019-02-23T19:15:58.199Z,64.98
2019-02-23T19:18:26.316Z,65.20
2019-02-23T19:20:54.552Z,64.81
2019-02-23T19:23:22.625Z,66.74
2019-02-23T19:25:50.777Z,67.84
2019-02-23T19:28:18.863Z,66.33
2019-02-23T19:30:47.693Z,67.24
2019-02-23T19:33:16.192Z,67.14
2019-02-23T19:35:44.306Z,67.77
2019-02-23T19:38:12.429Z,67.66
2019-02-23T19:40:40.629Z,67.33
2019-02-23T19:43:08.765Z,67.54
2019-02-23T19:45:36.897Z,67.87
2019-02-23T19:48:05.458Z,67.92
2019-02-23T19:50:38.929Z,68.19
2019-02-23T19:53:07.043Z,68.94
2019-02-23T19:55:35.153Z,68.78
2019-02-23T19:58:03.464Z,68.20
2019-02-23T20:00:31.578Z,67.93
2019-02-23T20:02:59.672Z,68.61
2019-02-23T20:05:27.779Z,67.67
2019-02-23T20:07:56.763Z,68.52
2019-02-23T20:10:25.154Z,69.83
2019-02-23T20:12:53.432Z,70.33
2019-02-23T20:15:21.563Z,70.20
2019-02-23T20:17:49.712Z,70.48
2019-02-23T20:20:18.599Z,69.63
2019-02-23T20:22:46.748Z,69.69
2019-02-23T20:25:15.801Z,69.15
2019-02-23T20:27:44.014Z,69.43
2019-02-23T20:30:12.367Z,69.56
2019-02-23T20:32:40.965Z,70.36
2019-02-23T20:35:09.439Z,69.15
2019-02-23T20:37:37.550Z,69.53
2019-02-23T20:40:06.499Z,69.55
2019-02-23T20:42:34.852Z,69.64
2019-02-23T20:45:21.892Z,70.23
2019-02-23T20:47:51.299Z,70.72
2019-02-23T20:50:19.497Z,71.88
2019-02-23T20:52:47.623Z,71.05
2019-02-23T20:55:16.629Z,70.95
2019-02-23T20:57:44.869Z,70.98
2019-02-23T21:00:13.040Z,70.31
2019-02-23T21:02:41.292Z,70.65
2019-02-23T21:05:09.636Z,71.39
2019-02-23T21:07:38.000Z,72.36
2019-02-23T21:10:06.786Z,72.79
2019-02-23T21:12:34.941Z,72.71
2019-02-23T21:15:06.101Z,73.03
2019-02-23T21:17:34.178Z,71.74
2019-02-23T21:20:02.721Z,72.95
2019-02-23T21:22:30.819Z,72.37
2019-02-23T21:24:59.366Z,72.00
2019-02-23T21:27:27.530Z,72.62
2019-02-23T21:29:55.900Z,72.03
2019-02-23T21:32:24.090Z,71.72
2019-02-23T21:34:53.071Z,72.68
2019-02-23T21:37:22.209Z,72.83
2019-02-23T21:39:50.618Z,72.17
2019-02-23T21:42:19.074Z,73.05
2019-02-23T21:44:47.233Z,74.25
2019-02-23T21:47:15.309Z,73.94
2019-02-23T21:49:43.483Z,73.48
2019-02-23T21:52:11.582Z,73.96
2019-02-23T21:54:39.633Z,74.05
2019-02-23T21:57:07.761Z,74.11
2019-02-23T21:59:36.133Z,74.17
2019-02-23T22:02:04.384Z,73.87
2019-02-23T22:04:32.502Z,74.80
2019-02-23T22:07:00.588Z,75.10
2019-02-23T22:09:28.801Z,75.76
2019-02-23T22:11:57.054Z,76.03
2019-02-23T22:14:25.241Z,76.10
2019-02-23T22:16:53.339Z,77.02
2019-02-23T22:19:21.422Z,76.98
2019-02-23T22:21:51.199Z,78.16
2019-02-23T22:24:19.422Z,77.98
2019-02-23T22:26:47.844Z,77.92
2019-02-23T22:29:15.931Z,78.79
2019-02-23T22:31:44.914Z,78.59
2019-02-23T22:34:13.071Z,78.90
2019-02-23T22:36:41.233Z,79.31
2019-02-23T22:39:09.589Z,79.87
2019-02-23T22:41:37.670Z,79.15
2019-02-23T22:44:05.772Z,80.07
2019-02-23T22:46:33.883Z,79.98
2019-02-23T22:49:01.965Z,80.46
2019-02-23T22:51:30.127Z,80.57
2019-02-23T22:53:58.185Z,80.77
2019-02-23T22:56:26.284Z,80.53
2019-02-23T22:58:54.394Z,80.75
2019-02-23T23:01:22.733Z,80.69
2019-02-23T23:03:50.871Z,80.69
2019-02-23T23:06:18.950Z,80.82
2019-02-23T23:08:47.074Z,80.65
2019-02-23T23:11:16.953Z,80.62
2019-02-23T23:13:45.079Z,80.66
2019-02-23T23:16:13.233Z,79.82
2019-02-23T23:18:41.378Z,79.30
2019-02-23T23:21:09.445Z,79.53
2019-02-23T23:23:37.574Z,78.78
2019-02-23T23:26:06.568Z,79.18
2019-02-23T23:28:34.738Z,79.30
2019-02-23T23:31:02.776Z,79.90
2019-02-23T23:33:31.007Z,79.90
2019-02-23T23:35:59.174Z,80.16
2019-02-23T23:38:27.307Z,80.40
2019-02-23T23:40:55.491Z,79.70
2019-02-23T23:43:23.604Z,80.57
2019-02-23T23:45:51.691Z,80.26
2019-02-23T23:48:20.038Z,79.70
2019-02-23T23:50:48.148Z,79.62
2019-02-23T23:53:16.313Z,79.83
2019-02-23T23:55:44.517Z,79.38
2019-02-23T23:58:12.607Z,80.25
